sensor_id;sensor_type;location;lat;lon;timestamp;temperature;humidity
64718;DHT22;62506;46.070;14.492;2023-11-18T00:01:33;22.20;58.70
64718;DHT22;62506;46.070;14.492;2023-11-18T00:03:59;22.20;58.80
64718;DHT22;62506;46.070;14.492;2023-11-18T00:06:25;22.20;58.70
64718;DHT22;62506;46.070;14.492;2023-11-18T00:08:50;22.20;58.80
64718;DHT22;62506;46.070;14.492;2023-11-18T00:11:16;22.20;58.80
64718;DHT22;62506;46.070;14.492;2023-11-18T00:13:41;22.20;58.80
64718;DHT22;62506;46.070;14.492;2023-11-18T00:16:10;22.20;58.90
64718;DHT22;62506;46.070;14.492;2023-11-18T00:18:41;22.20;58.90
64718;DHT22;62506;46.070;14.492;2023-11-18T00:21:06;22.20;58.90
64718;DHT22;62506;46.070;14.492;2023-11-18T00:23:33;22.20;58.90
64718;DHT22;62506;46.070;14.492;2023-11-18T00:25:58;22.10;58.90
64718;DHT22;62506;46.070;14.492;2023-11-18T00:28:24;22.20;58.90
64718;DHT22;62506;46.070;14.492;2023-11-18T00:30:49;22.10;58.90
64718;DHT22;62506;46.070;14.492;2023-11-18T00:33:15;22.10;58.90
64718;DHT22;62506;46.070;14.492;2023-11-18T00:35:40;22.10;59.00
64718;DHT22;62506;46.070;14.492;2023-11-18T00:38:06;22.10;59.00
64718;DHT22;62506;46.070;14.492;2023-11-18T00:40:32;22.10;59.00
64718;DHT22;62506;46.070;14.492;2023-11-18T00:42:58;22.10;59.10
64718;DHT22;62506;46.070;14.492;2023-11-18T00:45:24;22.10;59.20
64718;DHT22;62506;46.070;14.492;2023-11-18T00:47:49;22.10;59.20
64718;DHT22;62506;46.070;14.492;2023-11-18T00:50:15;22.10;59.20
64718;DHT22;62506;46.070;14.492;2023-11-18T00:52:40;22.10;59.30
64718;DHT22;62506;46.070;14.492;2023-11-18T00:55:09;22.10;59.30
64718;DHT22;62506;46.070;14.492;2023-11-18T00:57:36;22.10;59.30
64718;DHT22;62506;46.070;14.492;2023-11-18T01:00:05;22.10;59.40
64718;DHT22;62506;46.070;14.492;2023-11-18T01:02:31;22.10;59.40
64718;DHT22;62506;46.070;14.492;2023-11-18T01:04:56;22.10;59.30
64718;DHT22;62506;46.070;14.492;2023-11-18T01:07:22;22.10;59.40
64718;DHT22;62506;46.070;14.492;2023-11-18T01:09:48;22.10;59.50
64718;DHT22;62506;46.070;14.492;2023-11-18T01:12:14;22.10;59.40
64718;DHT22;62506;46.070;14.492;2023-11-18T01:14:39;22.00;59.50
64718;DHT22;62506;46.070;14.492;2023-11-18T01:17:07;22.00;59.50
64718;DHT22;62506;46.070;14.492;2023-11-18T01:19:34;22.00;59.60
64718;DHT22;62506;46.070;14.492;2023-11-18T01:22:00;22.00;59.50
64718;DHT22;62506;46.070;14.492;2023-11-18T01:24:25;22.10;59.50
64718;DHT22;62506;46.070;14.492;2023-11-18T01:26:51;22.10;59.40
64718;DHT22;62506;46.070;14.492;2023-11-18T01:29:17;22.00;59.50
64718;DHT22;62506;46.070;14.492;2023-11-18T01:31:42;22.10;59.40
64718;DHT22;62506;46.070;14.492;2023-11-18T01:34:08;22.10;59.30
64718;DHT22;62506;46.070;14.492;2023-11-18T01:36:33;22.10;59.30
64718;DHT22;62506;46.070;14.492;2023-11-18T01:38:59;22.00;59.30
64718;DHT22;62506;46.070;14.492;2023-11-18T01:41:25;22.10;59.40
64718;DHT22;62506;46.070;14.492;2023-11-18T01:43:51;22.10;59.40
64718;DHT22;62506;46.070;14.492;2023-11-18T01:46:18;22.10;59.30
64718;DHT22;62506;46.070;14.492;2023-11-18T01:48:45;22.10;59.40
64718;DHT22;62506;46.070;14.492;2023-11-18T01:51:11;22.10;59.30
64718;DHT22;62506;46.070;14.492;2023-11-18T01:53:37;22.10;59.30
64718;DHT22;62506;46.070;14.492;2023-11-18T01:56:06;22.10;59.40
64718;DHT22;62506;46.070;14.492;2023-11-18T01:58:34;22.00;59.50
64718;DHT22;62506;46.070;14.492;2023-11-18T02:01:01;22.00;59.50
64718;DHT22;62506;46.070;14.492;2023-11-18T02:03:27;22.00;59.60
64718;DHT22;62506;46.070;14.492;2023-11-18T02:05:53;22.00;59.60
64718;DHT22;62506;46.070;14.492;2023-11-18T02:08:19;22.00;59.60
64718;DHT22;62506;46.070;14.492;2023-11-18T02:10:54;22.00;59.60
64718;DHT22;62506;46.070;14.492;2023-11-18T02:13:23;22.00;59.60
64718;DHT22;62506;46.070;14.492;2023-11-18T02:15:53;22.00;59.60
64718;DHT22;62506;46.070;14.492;2023-11-18T02:18:18;22.00;59.70
64718;DHT22;62506;46.070;14.492;2023-11-18T02:20:45;22.00;59.70
64718;DHT22;62506;46.070;14.492;2023-11-18T02:23:13;22.00;59.60
64718;DHT22;62506;46.070;14.492;2023-11-18T02:25:42;22.00;59.60
64718;DHT22;62506;46.070;14.492;2023-11-18T02:28:08;22.00;59.50
64718;DHT22;62506;46.070;14.492;2023-11-18T02:30:34;22.10;59.50
64718;DHT22;62506;46.070;14.492;2023-11-18T02:35:46;22.00;59.50
64718;DHT22;62506;46.070;14.492;2023-11-18T02:38:13;22.00;59.50
64718;DHT22;62506;46.070;14.492;2023-11-18T02:40:40;22.00;59.40
64718;DHT22;62506;46.070;14.492;2023-11-18T02:43:08;22.00;59.50
64718;DHT22;62506;46.070;14.492;2023-11-18T02:45:35;22.10;59.50
64718;DHT22;62506;46.070;14.492;2023-11-18T02:48:01;22.00;59.50
64718;DHT22;62506;46.070;14.492;2023-11-18T02:50:27;22.10;59.50
64718;DHT22;62506;46.070;14.492;2023-11-18T02:52:53;22.00;59.50
64718;DHT22;62506;46.070;14.492;2023-11-18T02:55:18;22.10;59.60
64718;DHT22;62506;46.070;14.492;2023-11-18T02:57:46;22.10;59.50
64718;DHT22;62506;46.070;14.492;2023-11-18T03:00:12;22.10;59.50
64718;DHT22;62506;46.070;14.492;2023-11-18T03:02:47;22.10;59.50
64718;DHT22;62506;46.070;14.492;2023-11-18T03:05:13;22.10;59.50
64718;DHT22;62506;46.070;14.492;2023-11-18T03:07:43;22.10;59.50
64718;DHT22;62506;46.070;14.492;2023-11-18T03:10:09;22.10;59.50
64718;DHT22;62506;46.070;14.492;2023-11-18T03:12:37;22.10;59.50
64718;DHT22;62506;46.070;14.492;2023-11-18T03:15:05;22.10;59.50
64718;DHT22;62506;46.070;14.492;2023-11-18T03:17:30;22.10;59.50
64718;DHT22;62506;46.070;14.492;2023-11-18T03:19:56;22.00;59.50
64718;DHT22;62506;46.070;14.492;2023-11-18T03:22:22;22.00;59.60
64718;DHT22;62506;46.070;14.492;2023-11-18T03:24:48;22.00;59.60
64718;DHT22;62506;46.070;14.492;2023-11-18T03:27:14;22.00;59.50
64718;DHT22;62506;46.070;14.492;2023-11-18T03:29:40;22.00;59.60
64718;DHT22;62506;46.070;14.492;2023-11-18T03:32:06;22.00;59.60
64718;DHT22;62506;46.070;14.492;2023-11-18T03:34:31;22.00;59.60
64718;DHT22;62506;46.070;14.492;2023-11-18T03:36:57;22.00;59.70
64718;DHT22;62506;46.070;14.492;2023-11-18T03:39:23;22.00;59.70
64718;DHT22;62506;46.070;14.492;2023-11-18T03:41:48;22.00;59.70
64718;DHT22;62506;46.070;14.492;2023-11-18T03:44:15;22.00;59.70
64718;DHT22;62506;46.070;14.492;2023-11-18T03:46:40;22.00;59.80
64718;DHT22;62506;46.070;14.492;2023-11-18T03:49:06;22.00;59.80
64718;DHT22;62506;46.070;14.492;2023-11-18T03:51:31;22.00;59.80
64718;DHT22;62506;46.070;14.492;2023-11-18T03:53:57;22.00;59.80
64718;DHT22;62506;46.070;14.492;2023-11-18T03:56:22;22.00;59.90
64718;DHT22;62506;46.070;14.492;2023-11-18T03:58:48;22.00;59.80
64718;DHT22;62506;46.070;14.492;2023-11-18T04:01:25;21.90;59.80
64718;DHT22;62506;46.070;14.492;2023-11-18T04:03:54;21.90;59.80
64718;DHT22;62506;46.070;14.492;2023-11-18T04:06:22;21.90;59.80
64718;DHT22;62506;46.070;14.492;2023-11-18T04:08:49;21.90;59.90
64718;DHT22;62506;46.070;14.492;2023-11-18T04:11:15;21.90;59.90
64718;DHT22;62506;46.070;14.492;2023-11-18T04:13:41;21.90;59.90
64718;DHT22;62506;46.070;14.492;2023-11-18T04:16:13;21.90;60.00
64718;DHT22;62506;46.070;14.492;2023-11-18T04:18:40;21.90;60.00
64718;DHT22;62506;46.070;14.492;2023-11-18T04:21:06;21.90;60.00
64718;DHT22;62506;46.070;14.492;2023-11-18T04:23:32;21.90;60.00
64718;DHT22;62506;46.070;14.492;2023-11-18T04:25:58;21.90;60.10
64718;DHT22;62506;46.070;14.492;2023-11-18T04:28:23;21.90;60.00
64718;DHT22;62506;46.070;14.492;2023-11-18T04:30:49;21.90;60.00
64718;DHT22;62506;46.070;14.492;2023-11-18T04:33:15;21.90;60.00
64718;DHT22;62506;46.070;14.492;2023-11-18T04:35:40;21.90;59.80
64718;DHT22;62506;46.070;14.492;2023-11-18T04:38:06;21.90;59.80
64718;DHT22;62506;46.070;14.492;2023-11-18T04:40:31;21.90;59.90
64718;DHT22;62506;46.070;14.492;2023-11-18T04:42:57;21.90;59.80
64718;DHT22;62506;46.070;14.492;2023-11-18T04:45:22;21.90;59.80
64718;DHT22;62506;46.070;14.492;2023-11-18T04:47:48;21.90;59.80
64718;DHT22;62506;46.070;14.492;2023-11-18T04:50:15;21.90;59.80
64718;DHT22;62506;46.070;14.492;2023-11-18T04:52:40;21.90;59.80
64718;DHT22;62506;46.070;14.492;2023-11-18T04:55:08;21.90;59.80
64718;DHT22;62506;46.070;14.492;2023-11-18T04:57:35;21.90;59.90
64718;DHT22;62506;46.070;14.492;2023-11-18T05:00:01;22.00;59.80
64718;DHT22;62506;46.070;14.492;2023-11-18T05:02:35;21.90;59.90
64718;DHT22;62506;46.070;14.492;2023-11-18T05:05:00;21.90;59.80
64718;DHT22;62506;46.070;14.492;2023-11-18T05:07:26;21.90;59.90
64718;DHT22;62506;46.070;14.492;2023-11-18T05:09:53;21.90;60.00
64718;DHT22;62506;46.070;14.492;2023-11-18T05:12:19;21.90;60.00
64718;DHT22;62506;46.070;14.492;2023-11-18T05:14:45;21.90;59.90
64718;DHT22;62506;46.070;14.492;2023-11-18T05:17:10;21.90;60.00
64718;DHT22;62506;46.070;14.492;2023-11-18T05:19:36;21.90;60.00
64718;DHT22;62506;46.070;14.492;2023-11-18T05:22:01;21.80;60.00
64718;DHT22;62506;46.070;14.492;2023-11-18T05:24:27;21.90;60.00
64718;DHT22;62506;46.070;14.492;2023-11-18T05:26:53;21.90;60.10
64718;DHT22;62506;46.070;14.492;2023-11-18T05:29:18;21.90;60.10
64718;DHT22;62506;46.070;14.492;2023-11-18T05:31:46;21.90;60.10
64718;DHT22;62506;46.070;14.492;2023-11-18T05:34:11;21.80;60.20
64718;DHT22;62506;46.070;14.492;2023-11-18T05:36:38;21.80;60.10
64718;DHT22;62506;46.070;14.492;2023-11-18T05:39:05;21.80;60.00
64718;DHT22;62506;46.070;14.492;2023-11-18T05:41:32;21.80;60.00
64718;DHT22;62506;46.070;14.492;2023-11-18T05:44:00;21.80;60.10
64718;DHT22;62506;46.070;14.492;2023-11-18T05:46:26;21.80;60.20
64718;DHT22;62506;46.070;14.492;2023-11-18T05:48:55;21.80;60.20
64718;DHT22;62506;46.070;14.492;2023-11-18T05:51:25;21.80;60.00
64718;DHT22;62506;46.070;14.492;2023-11-18T05:53:52;21.80;60.20
64718;DHT22;62506;46.070;14.492;2023-11-18T05:56:18;21.80;60.20
64718;DHT22;62506;46.070;14.492;2023-11-18T05:58:44;21.80;60.10
64718;DHT22;62506;46.070;14.492;2023-11-18T06:01:09;21.80;60.00
64718;DHT22;62506;46.070;14.492;2023-11-18T06:03:36;21.80;60.10
64718;DHT22;62506;46.070;14.492;2023-11-18T06:06:09;21.80;60.20
64718;DHT22;62506;46.070;14.492;2023-11-18T06:08:35;21.80;60.20
64718;DHT22;62506;46.070;14.492;2023-11-18T06:11:01;21.90;60.20
64718;DHT22;62506;46.070;14.492;2023-11-18T06:16:14;21.90;60.10
64718;DHT22;62506;46.070;14.492;2023-11-18T06:18:43;21.90;60.00
64718;DHT22;62506;46.070;14.492;2023-11-18T06:21:15;21.90;60.00
64718;DHT22;62506;46.070;14.492;2023-11-18T06:24:16;21.90;60.30
64718;DHT22;62506;46.070;14.492;2023-11-18T06:27:03;22.00;59.40
64718;DHT22;62506;46.070;14.492;2023-11-18T06:29:29;22.00;59.30
64718;DHT22;62506;46.070;14.492;2023-11-18T06:31:56;22.10;59.00
64718;DHT22;62506;46.070;14.492;2023-11-18T06:34:24;22.10;58.90
64718;DHT22;62506;46.070;14.492;2023-11-18T06:37:22;22.10;58.90
64718;DHT22;62506;46.070;14.492;2023-11-18T06:40:08;22.10;58.80
64718;DHT22;62506;46.070;14.492;2023-11-18T06:42:42;22.20;58.50
64718;DHT22;62506;46.070;14.492;2023-11-18T06:45:08;22.20;58.40
64718;DHT22;62506;46.070;14.492;2023-11-18T06:48:03;22.20;58.40
64718;DHT22;62506;46.070;14.492;2023-11-18T06:51:10;22.20;57.20
64718;DHT22;62506;46.070;14.492;2023-11-18T06:53:57;22.30;57.80
64718;DHT22;62506;46.070;14.492;2023-11-18T06:56:23;22.30;57.80
64718;DHT22;62506;46.070;14.492;2023-11-18T06:58:52;22.30;58.20
64718;DHT22;62506;46.070;14.492;2023-11-18T07:01:41;22.40;57.90
64718;DHT22;62506;46.070;14.492;2023-11-18T07:04:43;22.40;58.20
64718;DHT22;62506;46.070;14.492;2023-11-18T07:07:11;22.50;57.70
64718;DHT22;62506;46.070;14.492;2023-11-18T07:09:38;22.50;58.00
64718;DHT22;62506;46.070;14.492;2023-11-18T07:12:32;22.50;57.50
64718;DHT22;62506;46.070;14.492;2023-11-18T07:15:03;22.50;57.50
64718;DHT22;62506;46.070;14.492;2023-11-18T07:17:47;22.50;57.50
64718;DHT22;62506;46.070;14.492;2023-11-18T07:20:36;22.60;57.80
64718;DHT22;62506;46.070;14.492;2023-11-18T07:23:03;22.50;57.70
64718;DHT22;62506;46.070;14.492;2023-11-18T07:25:30;22.50;56.90
64718;DHT22;62506;46.070;14.492;2023-11-18T07:27:56;22.50;57.80
64718;DHT22;62506;46.070;14.492;2023-11-18T07:30:47;22.50;57.50
64718;DHT22;62506;46.070;14.492;2023-11-18T07:33:30;22.50;57.60
64718;DHT22;62506;46.070;14.492;2023-11-18T07:35:57;22.50;58.30
64718;DHT22;62506;46.070;14.492;2023-11-18T07:38:24;22.50;58.20
64718;DHT22;62506;46.070;14.492;2023-11-18T07:40:51;22.50;58.20
64718;DHT22;62506;46.070;14.492;2023-11-18T07:43:22;22.50;58.00
64718;DHT22;62506;46.070;14.492;2023-11-18T07:45:47;22.50;58.60
64718;DHT22;62506;46.070;14.492;2023-11-18T07:48:18;22.50;58.20
64718;DHT22;62506;46.070;14.492;2023-11-18T07:50:46;22.50;58.60
64718;DHT22;62506;46.070;14.492;2023-11-18T07:53:13;22.50;53.00
64718;DHT22;62506;46.070;14.492;2023-11-18T07:55:38;22.40;56.20
64718;DHT22;62506;46.070;14.492;2023-11-18T07:58:13;22.50;57.00
64718;DHT22;62506;46.070;14.492;2023-11-18T08:00:39;22.40;57.80
64718;DHT22;62506;46.070;14.492;2023-11-18T08:03:06;22.50;57.00
64718;DHT22;62506;46.070;14.492;2023-11-18T08:05:36;22.40;57.70
64718;DHT22;62506;46.070;14.492;2023-11-18T08:08:05;22.50;57.90
64718;DHT22;62506;46.070;14.492;2023-11-18T08:10:31;22.50;58.00
64718;DHT22;62506;46.070;14.492;2023-11-18T08:12:58;22.50;58.10
64718;DHT22;62506;46.070;14.492;2023-11-18T08:15:24;22.50;58.00
64718;DHT22;62506;46.070;14.492;2023-11-18T08:17:52;22.50;57.70
64718;DHT22;62506;46.070;14.492;2023-11-18T08:20:17;22.50;57.60
64718;DHT22;62506;46.070;14.492;2023-11-18T08:22:43;22.50;57.50
64718;DHT22;62506;46.070;14.492;2023-11-18T08:25:09;22.60;57.40
64718;DHT22;62506;46.070;14.492;2023-11-18T08:27:35;22.60;57.40
64718;DHT22;62506;46.070;14.492;2023-11-18T08:30:01;22.60;57.80
64718;DHT22;62506;46.070;14.492;2023-11-18T08:32:31;22.60;57.50
64718;DHT22;62506;46.070;14.492;2023-11-18T08:34:57;22.60;57.70
64718;DHT22;62506;46.070;14.492;2023-11-18T08:37:22;22.60;58.40
64718;DHT22;62506;46.070;14.492;2023-11-18T08:39:47;22.60;58.10
64718;DHT22;62506;46.070;14.492;2023-11-18T08:42:13;22.60;57.90
64718;DHT22;62506;46.070;14.492;2023-11-18T08:44:40;22.60;58.00
64718;DHT22;62506;46.070;14.492;2023-11-18T08:47:05;22.60;58.20
64718;DHT22;62506;46.070;14.492;2023-11-18T08:52:52;22.60;58.00
64718;DHT22;62506;46.070;14.492;2023-11-18T08:56:17;22.60;58.30
64718;DHT22;62506;46.070;14.492;2023-11-18T09:02:51;22.60;58.40
64718;DHT22;62506;46.070;14.492;2023-11-18T09:06:06;22.60;57.90
64718;DHT22;62506;46.070;14.492;2023-11-18T09:08:42;22.60;58.90
64718;DHT22;62506;46.070;14.492;2023-11-18T09:11:09;22.60;58.10
64718;DHT22;62506;46.070;14.492;2023-11-18T09:13:42;22.70;58.60
64718;DHT22;62506;46.070;14.492;2023-11-18T09:16:10;22.70;59.00
64718;DHT22;62506;46.070;14.492;2023-11-18T09:18:40;22.70;58.90
64718;DHT22;62506;46.070;14.492;2023-11-18T09:21:07;22.70;58.70
64718;DHT22;62506;46.070;14.492;2023-11-18T09:23:33;22.80;58.30
64718;DHT22;62506;46.070;14.492;2023-11-18T09:26:03;22.70;57.80
64718;DHT22;62506;46.070;14.492;2023-11-18T09:28:33;22.70;57.70
64718;DHT22;62506;46.070;14.492;2023-11-18T09:31:03;22.70;57.60
64718;DHT22;62506;46.070;14.492;2023-11-18T09:33:30;22.60;57.50
64718;DHT22;62506;46.070;14.492;2023-11-18T09:36:08;22.60;57.40
64718;DHT22;62506;46.070;14.492;2023-11-18T09:38:37;22.60;57.40
64718;DHT22;62506;46.070;14.492;2023-11-18T09:41:06;22.60;57.40
64718;DHT22;62506;46.070;14.492;2023-11-18T09:43:42;22.60;57.50
64718;DHT22;62506;46.070;14.492;2023-11-18T09:46:12;22.60;57.60
64718;DHT22;62506;46.070;14.492;2023-11-18T09:49:25;22.60;57.50
64718;DHT22;62506;46.070;14.492;2023-11-18T09:51:27;22.60;57.50
64718;DHT22;62506;46.070;14.492;2023-11-18T09:53:59;22.60;57.70
64718;DHT22;62506;46.070;14.492;2023-11-18T09:59:20;22.60;58.10
64718;DHT22;62506;46.070;14.492;2023-11-18T10:01:53;22.60;57.50
64718;DHT22;62506;46.070;14.492;2023-11-18T10:04:25;22.50;57.40
64718;DHT22;62506;46.070;14.492;2023-11-18T10:06:53;22.60;57.60
64718;DHT22;62506;46.070;14.492;2023-11-18T10:09:20;22.50;57.70
64718;DHT22;62506;46.070;14.492;2023-11-18T10:11:53;22.50;57.60
64718;DHT22;62506;46.070;14.492;2023-11-18T10:14:26;22.50;57.70
64718;DHT22;62506;46.070;14.492;2023-11-18T10:16:53;22.50;57.90
64718;DHT22;62506;46.070;14.492;2023-11-18T10:19:19;22.50;57.80
64718;DHT22;62506;46.070;14.492;2023-11-18T10:21:45;22.50;57.80
64718;DHT22;62506;46.070;14.492;2023-11-18T10:24:14;22.50;58.20
64718;DHT22;62506;46.070;14.492;2023-11-18T10:26:43;22.40;57.80
64718;DHT22;62506;46.070;14.492;2023-11-18T10:29:10;22.40;57.80
64718;DHT22;62506;46.070;14.492;2023-11-18T10:31:38;22.40;58.50
64718;DHT22;62506;46.070;14.492;2023-11-18T10:34:10;22.40;57.70
64718;DHT22;62506;46.070;14.492;2023-11-18T10:36:36;22.40;57.70
64718;DHT22;62506;46.070;14.492;2023-11-18T10:39:02;22.40;57.70
64718;DHT22;62506;46.070;14.492;2023-11-18T10:41:41;22.20;48.80
64718;DHT22;62506;46.070;14.492;2023-11-18T10:44:08;22.20;54.40
64718;DHT22;62506;46.070;14.492;2023-11-18T10:46:40;22.30;55.10
64718;DHT22;62506;46.070;14.492;2023-11-18T10:49:06;22.30;55.90
64718;DHT22;62506;46.070;14.492;2023-11-18T10:51:35;22.30;56.10
64718;DHT22;62506;46.070;14.492;2023-11-18T10:54:04;22.30;55.70
64718;DHT22;62506;46.070;14.492;2023-11-18T10:56:32;22.20;49.80
64718;DHT22;62506;46.070;14.492;2023-11-18T10:58:58;21.80;44.50
64718;DHT22;62506;46.070;14.492;2023-11-18T11:01:30;21.60;38.60
64718;DHT22;62506;46.070;14.492;2023-11-18T11:36:06;22.20;52.60
64718;DHT22;62506;46.070;14.492;2023-11-18T11:38:39;22.20;53.70
64718;DHT22;62506;46.070;14.492;2023-11-18T11:41:05;22.20;53.90
64718;DHT22;62506;46.070;14.492;2023-11-18T11:43:33;22.20;54.20
64718;DHT22;62506;46.070;14.492;2023-11-18T11:46:03;22.20;54.10
64718;DHT22;62506;46.070;14.492;2023-11-18T11:48:35;22.20;54.00
64718;DHT22;62506;46.070;14.492;2023-11-18T11:53:47;22.20;54.40
64718;DHT22;62506;46.070;14.492;2023-11-18T11:56:17;22.20;54.40
64718;DHT22;62506;46.070;14.492;2023-11-18T11:58:48;22.20;54.30
64718;DHT22;62506;46.070;14.492;2023-11-18T12:01:25;22.20;54.30
64718;DHT22;62506;46.070;14.492;2023-11-18T12:03:57;22.30;54.40
64718;DHT22;62506;46.070;14.492;2023-11-18T12:06:25;22.30;54.50
64718;DHT22;62506;46.070;14.492;2023-11-18T12:08:54;22.30;54.50
64718;DHT22;62506;46.070;14.492;2023-11-18T12:11:21;22.30;54.80
64718;DHT22;62506;46.070;14.492;2023-11-18T12:14:04;22.30;54.60
64718;DHT22;62506;46.070;14.492;2023-11-18T12:19:32;22.30;54.80
64718;DHT22;62506;46.070;14.492;2023-11-18T12:22:01;22.30;54.80
64718;DHT22;62506;46.070;14.492;2023-11-18T12:24:38;22.30;54.90
64718;DHT22;62506;46.070;14.492;2023-11-18T12:27:05;22.30;54.90
64718;DHT22;62506;46.070;14.492;2023-11-18T12:29:41;22.30;54.80
64718;DHT22;62506;46.070;14.492;2023-11-18T12:32:08;22.30;54.90
64718;DHT22;62506;46.070;14.492;2023-11-18T12:34:50;22.30;54.90
64718;DHT22;62506;46.070;14.492;2023-11-18T12:42:58;22.30;54.90
64718;DHT22;62506;46.070;14.492;2023-11-18T12:45:35;22.30;55.60
64718;DHT22;62506;46.070;14.492;2023-11-18T12:48:08;22.30;55.10
64718;DHT22;62506;46.070;14.492;2023-11-18T12:50:43;22.30;54.90
64718;DHT22;62506;46.070;14.492;2023-11-18T12:53:11;22.30;54.90
64718;DHT22;62506;46.070;14.492;2023-11-18T12:55:40;22.30;54.90
64718;DHT22;62506;46.070;14.492;2023-11-18T12:58:06;22.30;54.80
64718;DHT22;62506;46.070;14.492;2023-11-18T13:00:32;22.30;55.00
64718;DHT22;62506;46.070;14.492;2023-11-18T13:02:59;22.30;55.00
64718;DHT22;62506;46.070;14.492;2023-11-18T13:05:25;22.20;55.10
64718;DHT22;62506;46.070;14.492;2023-11-18T13:07:55;22.30;55.20
64718;DHT22;62506;46.070;14.492;2023-11-18T13:10:21;22.30;55.30
64718;DHT22;62506;46.070;14.492;2023-11-18T13:12:47;22.30;55.30
64718;DHT22;62506;46.070;14.492;2023-11-18T13:15:12;22.20;55.20
64718;DHT22;62506;46.070;14.492;2023-11-18T13:17:38;22.20;55.30
64718;DHT22;62506;46.070;14.492;2023-11-18T13:20:12;22.30;55.30
64718;DHT22;62506;46.070;14.492;2023-11-18T13:22:43;22.30;55.30
64718;DHT22;62506;46.070;14.492;2023-11-18T13:25:08;22.30;55.20
64718;DHT22;62506;46.070;14.492;2023-11-18T13:27:34;22.30;55.30
64718;DHT22;62506;46.070;14.492;2023-11-18T13:30:01;22.30;55.20
64718;DHT22;62506;46.070;14.492;2023-11-18T13:32:28;22.30;55.40
64718;DHT22;62506;46.070;14.492;2023-11-18T13:34:54;22.30;55.10
64718;DHT22;62506;46.070;14.492;2023-11-18T13:37:20;22.30;55.30
64718;DHT22;62506;46.070;14.492;2023-11-18T13:39:56;22.30;55.10
64718;DHT22;62506;46.070;14.492;2023-11-18T13:42:25;22.30;55.10
64718;DHT22;62506;46.070;14.492;2023-11-18T13:45:02;22.30;55.10
64718;DHT22;62506;46.070;14.492;2023-11-18T13:47:34;22.30;55.20
64718;DHT22;62506;46.070;14.492;2023-11-18T13:50:00;22.30;55.30
64718;DHT22;62506;46.070;14.492;2023-11-18T13:52:25;22.30;55.20
64718;DHT22;62506;46.070;14.492;2023-11-18T13:54:51;22.30;55.40
64718;DHT22;62506;46.070;14.492;2023-11-18T13:57:21;22.30;55.30
64718;DHT22;62506;46.070;14.492;2023-11-18T13:59:49;22.30;55.40
64718;DHT22;62506;46.070;14.492;2023-11-18T14:02:15;22.30;55.40
64718;DHT22;62506;46.070;14.492;2023-11-18T14:04:42;22.30;55.40
64718;DHT22;62506;46.070;14.492;2023-11-18T14:07:13;22.30;55.40
64718;DHT22;62506;46.070;14.492;2023-11-18T14:09:42;22.30;55.30
64718;DHT22;62506;46.070;14.492;2023-11-18T14:12:10;22.30;55.40
64718;DHT22;62506;46.070;14.492;2023-11-18T14:14:36;22.30;55.40
64718;DHT22;62506;46.070;14.492;2023-11-18T14:17:02;22.30;55.50
64718;DHT22;62506;46.070;14.492;2023-11-18T14:19:28;22.30;55.50
64718;DHT22;62506;46.070;14.492;2023-11-18T14:21:54;22.30;55.60
64718;DHT22;62506;46.070;14.492;2023-11-18T14:24:20;22.20;55.60
64718;DHT22;62506;46.070;14.492;2023-11-18T14:26:48;22.20;55.80
64718;DHT22;62506;46.070;14.492;2023-11-18T14:29:13;22.20;55.70
64718;DHT22;62506;46.070;14.492;2023-11-18T14:31:39;22.20;55.90
64718;DHT22;62506;46.070;14.492;2023-11-18T14:34:04;22.20;55.70
64718;DHT22;62506;46.070;14.492;2023-11-18T14:36:30;22.20;55.90
64718;DHT22;62506;46.070;14.492;2023-11-18T14:38:56;22.20;55.90
64718;DHT22;62506;46.070;14.492;2023-11-18T14:41:23;22.20;56.00
64718;DHT22;62506;46.070;14.492;2023-11-18T14:43:54;22.20;55.90
64718;DHT22;62506;46.070;14.492;2023-11-18T14:46:20;22.20;56.00
64718;DHT22;62506;46.070;14.492;2023-11-18T14:48:46;22.20;55.90
64718;DHT22;62506;46.070;14.492;2023-11-18T14:51:12;22.20;56.60
64718;DHT22;62506;46.070;14.492;2023-11-18T14:53:37;22.20;55.90
64718;DHT22;62506;46.070;14.492;2023-11-18T14:56:03;22.20;55.80
64718;DHT22;62506;46.070;14.492;2023-11-18T14:58:31;22.20;55.70
64718;DHT22;62506;46.070;14.492;2023-11-18T15:00:58;22.20;55.70
64718;DHT22;62506;46.070;14.492;2023-11-18T15:03:24;22.20;55.80
64718;DHT22;62506;46.070;14.492;2023-11-18T15:05:50;22.20;55.60
64718;DHT22;62506;46.070;14.492;2023-11-18T15:08:15;22.20;55.50
64718;DHT22;62506;46.070;14.492;2023-11-18T15:10:41;22.20;55.60
64718;DHT22;62506;46.070;14.492;2023-11-18T15:13:07;22.20;55.60
64718;DHT22;62506;46.070;14.492;2023-11-18T15:15:38;22.20;55.50
64718;DHT22;62506;46.070;14.492;2023-11-18T15:18:04;22.20;55.60
64718;DHT22;62506;46.070;14.492;2023-11-18T15:20:30;22.20;55.50
64718;DHT22;62506;46.070;14.492;2023-11-18T15:22:56;22.20;55.50
64718;DHT22;62506;46.070;14.492;2023-11-18T15:25:22;22.20;55.50
64718;DHT22;62506;46.070;14.492;2023-11-18T15:27:47;22.20;55.40
64718;DHT22;62506;46.070;14.492;2023-11-18T15:30:13;22.20;55.50
64718;DHT22;62506;46.070;14.492;2023-11-18T15:32:40;22.20;55.50
64718;DHT22;62506;46.070;14.492;2023-11-18T15:35:06;22.20;55.70
64718;DHT22;62506;46.070;14.492;2023-11-18T15:37:36;22.20;55.40
64718;DHT22;62506;46.070;14.492;2023-11-18T15:40:02;22.20;55.50
64718;DHT22;62506;46.070;14.492;2023-11-18T15:42:35;22.20;55.60
64718;DHT22;62506;46.070;14.492;2023-11-18T15:45:02;22.20;55.50
64718;DHT22;62506;46.070;14.492;2023-11-18T15:47:27;22.20;56.50
64718;DHT22;62506;46.070;14.492;2023-11-18T15:49:55;22.30;55.50
64718;DHT22;62506;46.070;14.492;2023-11-18T15:52:21;22.30;55.90
64718;DHT22;62506;46.070;14.492;2023-11-18T15:55:32;22.30;56.50
64718;DHT22;62506;46.070;14.492;2023-11-18T15:58:39;22.30;56.20
64718;DHT22;62506;46.070;14.492;2023-11-18T16:01:08;22.30;56.30
64718;DHT22;62506;46.070;14.492;2023-11-18T16:03:54;22.30;56.00
64718;DHT22;62506;46.070;14.492;2023-11-18T16:06:30;22.30;56.60
64718;DHT22;62506;46.070;14.492;2023-11-18T16:08:56;22.30;55.00
64718;DHT22;62506;46.070;14.492;2023-11-18T16:11:22;22.30;55.50
64718;DHT22;62506;46.070;14.492;2023-11-18T16:13:48;22.40;55.70
64718;DHT22;62506;46.070;14.492;2023-11-18T16:16:15;22.40;56.40
64718;DHT22;62506;46.070;14.492;2023-11-18T16:18:40;22.40;55.70
64718;DHT22;62506;46.070;14.492;2023-11-18T16:21:08;22.40;56.20
64718;DHT22;62506;46.070;14.492;2023-11-18T16:23:37;22.40;55.50
64718;DHT22;62506;46.070;14.492;2023-11-18T16:26:21;22.40;55.60